sensor_id;sensor_type;location;lat;lon;timestamp;P1;P2;P0
46885;PMS5003;32622;48.202;11.326;2023-08-30T00:01:16;20;20;
46885;PMS5003;32622;48.202;11.326;2023-08-30T00:03:18;20;20;
46885;PMS5003;32622;48.202;11.326;2023-08-30T00:05:20;20;19;
46885;PMS5003;32622;48.202;11.326;2023-08-30T00:07:22;20;19;
46885;PMS5003;32622;48.202;11.326;2023-08-30T00:09:24;20;19;
46885;PMS5003;32622;48.202;11.326;2023-08-30T00:11:26;20;19;
46885;PMS5003;32622;48.202;11.326;2023-08-30T00:13:29;20;19;
46885;PMS5003;32622;48.202;11.326;2023-08-30T00:15:32;20;19;
46885;PMS5003;32622;48.202;11.326;2023-08-30T00:17:34;20;18;
46885;PMS5003;32622;48.202;11.326;2023-08-30T00:19:36;20;18;
46885;PMS5003;32622;48.202;11.326;2023-08-30T00:21:38;20;18;
46885;PMS5003;32622;48.202;11.326;2023-08-30T00:23:40;20;18;
46885;PMS5003;32622;48.202;11.326;2023-08-30T00:25:45;20;18;
46885;PMS5003;32622;48.202;11.326;2023-08-30T00:27:47;20;18;
46885;PMS5003;32622;48.202;11.326;2023-08-30T00:29:49;20;18;
46885;PMS5003;32622;48.202;11.326;2023-08-30T00:31:51;20;18;
46885;PMS5003;32622;48.202;11.326;2023-08-30T00:33:53;20;18;
46885;PMS5003;32622;48.202;11.326;2023-08-30T00:35:55;19;17;
46885;PMS5003;32622;48.202;11.326;2023-08-30T00:37:58;19;17;
46885;PMS5003;32622;48.202;11.326;2023-08-30T00:40:01;19;17;
46885;PMS5003;32622;48.202;11.326;2023-08-30T00:42:04;20;18;
46885;PMS5003;32622;48.202;11.326;2023-08-30T00:44:07;20;18;
46885;PMS5003;32622;48.202;11.326;2023-08-30T00:46:09;20;18;
46885;PMS5003;32622;48.202;11.326;2023-08-30T00:48:14;20;18;
46885;PMS5003;32622;48.202;11.326;2023-08-30T00:50:17;20;18;
46885;PMS5003;32622;48.202;11.326;2023-08-30T00:52:19;20;18;
46885;PMS5003;32622;48.202;11.326;2023-08-30T00:54:21;19;17;
46885;PMS5003;32622;48.202;11.326;2023-08-30T00:56:23;19;17;
46885;PMS5003;32622;48.202;11.326;2023-08-30T00:58:26;19;17;
46885;PMS5003;32622;48.202;11.326;2023-08-30T01:00:29;19;17;
46885;PMS5003;32622;48.202;11.326;2023-08-30T01:02:32;19;17;
46885;PMS5003;32622;48.202;11.326;2023-08-30T01:04:35;19;17;
46885;PMS5003;32622;48.202;11.326;2023-08-30T01:06:37;20;18;
46885;PMS5003;32622;48.202;11.326;2023-08-30T01:08:40;20;18;
46885;PMS5003;32622;48.202;11.326;2023-08-30T01:10:47;20;18;
46885;PMS5003;32622;48.202;11.326;2023-08-30T01:12:56;21;18;
46885;PMS5003;32622;48.202;11.326;2023-08-30T01:15:03;21;18;
46885;PMS5003;32622;48.202;11.326;2023-08-30T01:17:10;21;18;
46885;PMS5003;32622;48.202;11.326;2023-08-30T01:19:23;20;18;
46885;PMS5003;32622;48.202;11.326;2023-08-30T01:21:39;20;18;
46885;PMS5003;32622;48.202;11.326;2023-08-30T01:23:49;20;18;
46885;PMS5003;32622;48.202;11.326;2023-08-30T01:26:03;20;18;
46885;PMS5003;32622;48.202;11.326;2023-08-30T01:28:11;20;18;
46885;PMS5003;32622;48.202;11.326;2023-08-30T01:30:15;20;18;
46885;PMS5003;32622;48.202;11.326;2023-08-30T01:32:18;20;19;
46885;PMS5003;32622;48.202;11.326;2023-08-30T01:34:21;20;19;
46885;PMS5003;32622;48.202;11.326;2023-08-30T01:36:24;20;19;
46885;PMS5003;32622;48.202;11.326;2023-08-30T01:38:26;20;19;
46885;PMS5003;32622;48.202;11.326;2023-08-30T01:40:32;19;18;
46885;PMS5003;32622;48.202;11.326;2023-08-30T01:42:37;19;18;
46885;PMS5003;32622;48.202;11.326;2023-08-30T01:44:40;19;17;
46885;PMS5003;32622;48.202;11.326;2023-08-30T01:46:44;20;18;
46885;PMS5003;32622;48.202;11.326;2023-08-30T01:48:47;20;18;
46885;PMS5003;32622;48.202;11.326;2023-08-30T01:50:51;20;18;
46885;PMS5003;32622;48.202;11.326;2023-08-30T01:52:53;20;18;
46885;PMS5003;32622;48.202;11.326;2023-08-30T01:54:55;20;18;
46885;PMS5003;32622;48.202;11.326;2023-08-30T01:56:59;20;18;
46885;PMS5003;32622;48.202;11.326;2023-08-30T01:59:01;20;18;
46885;PMS5003;32622;48.202;11.326;2023-08-30T02:01:04;20;18;
46885;PMS5003;32622;48.202;11.326;2023-08-30T02:03:07;20;18;
46885;PMS5003;32622;48.202;11.326;2023-08-30T02:05:10;20;18;
46885;PMS5003;32622;48.202;11.326;2023-08-30T02:07:13;20;18;
46885;PMS5003;32622;48.202;11.326;2023-08-30T02:09:26;20;20;
46885;PMS5003;32622;48.202;11.326;2023-08-30T02:11:36;20;20;
46885;PMS5003;32622;48.202;11.326;2023-08-30T02:13:40;20;20;
46885;PMS5003;32622;48.202;11.326;2023-08-30T02:15:44;19;19;
46885;PMS5003;32622;48.202;11.326;2023-08-30T02:17:48;19;19;
46885;PMS5003;32622;48.202;11.326;2023-08-30T02:19:50;19;19;
46885;PMS5003;32622;48.202;11.326;2023-08-30T02:21:52;18;18;
46885;PMS5003;32622;48.202;11.326;2023-08-30T02:23:54;17;17;
46885;PMS5003;32622;48.202;11.326;2023-08-30T02:25:57;18;18;
46885;PMS5003;32622;48.202;11.326;2023-08-30T02:27:59;18;18;
46885;PMS5003;32622;48.202;11.326;2023-08-30T02:30:01;18;18;
46885;PMS5003;32622;48.202;11.326;2023-08-30T02:32:04;19;19;
46885;PMS5003;32622;48.202;11.326;2023-08-30T02:34:07;18;18;
46885;PMS5003;32622;48.202;11.326;2023-08-30T02:36:09;19;19;
46885;PMS5003;32622;48.202;11.326;2023-08-30T02:38:11;19;19;
46885;PMS5003;32622;48.202;11.326;2023-08-30T02:40:13;20;20;
46885;PMS5003;32622;48.202;11.326;2023-08-30T02:42:15;20;20;
46885;PMS5003;32622;48.202;11.326;2023-08-30T02:44:17;20;20;
46885;PMS5003;32622;48.202;11.326;2023-08-30T02:46:19;21;21;
46885;PMS5003;32622;48.202;11.326;2023-08-30T02:48:21;21;21;
46885;PMS5003;32622;48.202;11.326;2023-08-30T02:50:24;21;21;
46885;PMS5003;32622;48.202;11.326;2023-08-30T02:52:26;21;21;
46885;PMS5003;32622;48.202;11.326;2023-08-30T02:54:28;21;21;
46885;PMS5003;32622;48.202;11.326;2023-08-30T02:56:31;21;21;
46885;PMS5003;32622;48.202;11.326;2023-08-30T02:58:33;22;22;
46885;PMS5003;32622;48.202;11.326;2023-08-30T03:00:35;22;22;
46885;PMS5003;32622;48.202;11.326;2023-08-30T03:02:38;22;22;
46885;PMS5003;32622;48.202;11.326;2023-08-30T03:04:40;22;22;
46885;PMS5003;32622;48.202;11.326;2023-08-30T03:06:42;22;22;
46885;PMS5003;32622;48.202;11.326;2023-08-30T03:08:44;22;22;
46885;PMS5003;32622;48.202;11.326;2023-08-30T03:10:46;22;22;
46885;PMS5003;32622;48.202;11.326;2023-08-30T03:12:48;22;22;
46885;PMS5003;32622;48.202;11.326;2023-08-30T03:14:50;22;22;
46885;PMS5003;32622;48.202;11.326;2023-08-30T03:16:52;21;21;
46885;PMS5003;32622;48.202;11.326;2023-08-30T03:18:55;21;21;
46885;PMS5003;32622;48.202;11.326;2023-08-30T03:20:59;21;21;
46885;PMS5003;32622;48.202;11.326;2023-08-30T03:23:02;21;21;
46885;PMS5003;32622;48.202;11.326;2023-08-30T03:25:05;21;21;
46885;PMS5003;32622;48.202;11.326;2023-08-30T03:27:07;21;21;
46885;PMS5003;32622;48.202;11.326;2023-08-30T03:29:09;22;22;
46885;PMS5003;32622;48.202;11.326;2023-08-30T03:31:12;22;22;
46885;PMS5003;32622;48.202;11.326;2023-08-30T03:33:15;22;22;
46885;PMS5003;32622;48.202;11.326;2023-08-30T03:35:17;21;21;
46885;PMS5003;32622;48.202;11.326;2023-08-30T03:37:19;21;21;
46885;PMS5003;32622;48.202;11.326;2023-08-30T03:39:22;21;21;
46885;PMS5003;32622;48.202;11.326;2023-08-30T03:41:24;21;21;
46885;PMS5003;32622;48.202;11.326;2023-08-30T03:43:26;21;21;
46885;PMS5003;32622;48.202;11.326;2023-08-30T03:45:28;21;21;
46885;PMS5003;32622;48.202;11.326;2023-08-30T03:47:30;20;20;
46885;PMS5003;32622;48.202;11.326;2023-08-30T03:49:32;20;20;
46885;PMS5003;32622;48.202;11.326;2023-08-30T03:51:35;20;20;
46885;PMS5003;32622;48.202;11.326;2023-08-30T03:53:37;20;20;
46885;PMS5003;32622;48.202;11.326;2023-08-30T03:55:40;20;20;
46885;PMS5003;32622;48.202;11.326;2023-08-30T03:57:42;20;20;
46885;PMS5003;32622;48.202;11.326;2023-08-30T03:59:44;22;20;
46885;PMS5003;32622;48.202;11.326;2023-08-30T04:01:46;22;20;
46885;PMS5003;32622;48.202;11.326;2023-08-30T04:03:48;22;20;
46885;PMS5003;32622;48.202;11.326;2023-08-30T04:05:54;21;20;
46885;PMS5003;32622;48.202;11.326;2023-08-30T04:07:57;21;20;
46885;PMS5003;32622;48.202;11.326;2023-08-30T04:09:59;21;20;
46885;PMS5003;32622;48.202;11.326;2023-08-30T04:12:01;22;21;
46885;PMS5003;32622;48.202;11.326;2023-08-30T04:14:03;22;21;
46885;PMS5003;32622;48.202;11.326;2023-08-30T04:16:05;22;21;
46885;PMS5003;32622;48.202;11.326;2023-08-30T04:18:07;22;21;
46885;PMS5003;32622;48.202;11.326;2023-08-30T04:20:10;22;21;
46885;PMS5003;32622;48.202;11.326;2023-08-30T04:22:12;22;21;
46885;PMS5003;32622;48.202;11.326;2023-08-30T04:24:14;22;20;
46885;PMS5003;32622;48.202;11.326;2023-08-30T04:26:17;22;20;
46885;PMS5003;32622;48.202;11.326;2023-08-30T04:28:19;22;20;
46885;PMS5003;32622;48.202;11.326;2023-08-30T04:30:21;22;20;
46885;PMS5003;32622;48.202;11.326;2023-08-30T04:32:23;22;20;
46885;PMS5003;32622;48.202;11.326;2023-08-30T04:34:25;22;20;
46885;PMS5003;32622;48.202;11.326;2023-08-30T04:36:27;21;20;
46885;PMS5003;32622;48.202;11.326;2023-08-30T04:38:29;21;20;
46885;PMS5003;32622;48.202;11.326;2023-08-30T04:40:31;21;20;
46885;PMS5003;32622;48.202;11.326;2023-08-30T04:42:34;20;19;
46885;PMS5003;32622;48.202;11.326;2023-08-30T04:44:36;20;19;
46885;PMS5003;32622;48.202;11.326;2023-08-30T04:46:38;20;19;
46885;PMS5003;32622;48.202;11.326;2023-08-30T04:48:40;21;20;
46885;PMS5003;32622;48.202;11.326;2023-08-30T04:50:42;22;19;
46885;PMS5003;32622;48.202;11.326;2023-08-30T04:52:44;20;19;
46885;PMS5003;32622;48.202;11.326;2023-08-30T04:54:46;20;19;
46885;PMS5003;32622;48.202;11.326;2023-08-30T04:56:49;19;18;
46885;PMS5003;32622;48.202;11.326;2023-08-30T04:58:51;20;19;
46885;PMS5003;32622;48.202;11.326;2023-08-30T05:00:54;21;20;
46885;PMS5003;32622;48.202;11.326;2023-08-30T05:02:57;20;19;
46885;PMS5003;32622;48.202;11.326;2023-08-30T05:04:59;20;19;
46885;PMS5003;32622;48.202;11.326;2023-08-30T05:07:02;21;20;
46885;PMS5003;32622;48.202;11.326;2023-08-30T05:09:04;19;18;
46885;PMS5003;32622;48.202;11.326;2023-08-30T05:11:07;19;19;
46885;PMS5003;32622;48.202;11.326;2023-08-30T05:13:09;19;19;
46885;PMS5003;32622;48.202;11.326;2023-08-30T05:15:11;19;19;
46885;PMS5003;32622;48.202;11.326;2023-08-30T05:17:13;19;19;
46885;PMS5003;32622;48.202;11.326;2023-08-30T05:19:16;19;19;
46885;PMS5003;32622;48.202;11.326;2023-08-30T05:21:18;19;19;
46885;PMS5003;32622;48.202;11.326;2023-08-30T05:23:20;19;19;
46885;PMS5003;32622;48.202;11.326;2023-08-30T05:25:22;20;19;
46885;PMS5003;32622;48.202;11.326;2023-08-30T05:27:24;20;19;
46885;PMS5003;32622;48.202;11.326;2023-08-30T05:29:26;20;19;
46885;PMS5003;32622;48.202;11.326;2023-08-30T05:31:28;19;18;
46885;PMS5003;32622;48.202;11.326;2023-08-30T05:33:30;19;18;
46885;PMS5003;32622;48.202;11.326;2023-08-30T05:35:32;19;18;
46885;PMS5003;32622;48.202;11.326;2023-08-30T05:37:35;18;17;
46885;PMS5003;32622;48.202;11.326;2023-08-30T05:39:37;18;17;
46885;PMS5003;32622;48.202;11.326;2023-08-30T05:41:39;18;17;
46885;PMS5003;32622;48.202;11.326;2023-08-30T05:43:41;18;17;
46885;PMS5003;32622;48.202;11.326;2023-08-30T05:45:43;18;17;
46885;PMS5003;32622;48.202;11.326;2023-08-30T05:47:45;18;17;
46885;PMS5003;32622;48.202;11.326;2023-08-30T05:49:48;19;17;
46885;PMS5003;32622;48.202;11.326;2023-08-30T05:51:50;19;17;
46885;PMS5003;32622;48.202;11.326;2023-08-30T05:53:52;19;17;
46885;PMS5003;32622;48.202;11.326;2023-08-30T05:55:54;19;17;
46885;PMS5003;32622;48.202;11.326;2023-08-30T05:57:56;19;17;
46885;PMS5003;32622;48.202;11.326;2023-08-30T05:59:58;19;17;
46885;PMS5003;32622;48.202;11.326;2023-08-30T06:02:00;19;17;
46885;PMS5003;32622;48.202;11.326;2023-08-30T06:04:03;19;17;
46885;PMS5003;32622;48.202;11.326;2023-08-30T06:06:05;19;17;
46885;PMS5003;32622;48.202;11.326;2023-08-30T06:08:07;20;18;
46885;PMS5003;32622;48.202;11.326;2023-08-30T06:10:09;20;18;
46885;PMS5003;32622;48.202;11.326;2023-08-30T06:12:12;20;18;
46885;PMS5003;32622;48.202;11.326;2023-08-30T06:14:14;20;18;
46885;PMS5003;32622;48.202;11.326;2023-08-30T06:16:16;20;18;
46885;PMS5003;32622;48.202;11.326;2023-08-30T06:18:18;20;18;
46885;PMS5003;32622;48.202;11.326;2023-08-30T06:20:21;21;19;
46885;PMS5003;32622;48.202;11.326;2023-08-30T06:22:23;21;19;
46885;PMS5003;32622;48.202;11.326;2023-08-30T06:24:25;21;19;
46885;PMS5003;32622;48.202;11.326;2023-08-30T06:26:27;20;19;
46885;PMS5003;32622;48.202;11.326;2023-08-30T06:28:29;20;19;
46885;PMS5003;32622;48.202;11.326;2023-08-30T06:30:31;20;19;
46885;PMS5003;32622;48.202;11.326;2023-08-30T06:32:33;20;19;
46885;PMS5003;32622;48.202;11.326;2023-08-30T06:34:35;20;19;
46885;PMS5003;32622;48.202;11.326;2023-08-30T06:36:37;20;19;
46885;PMS5003;32622;48.202;11.326;2023-08-30T06:38:40;21;19;
46885;PMS5003;32622;48.202;11.326;2023-08-30T06:40:43;21;19;
46885;PMS5003;32622;48.202;11.326;2023-08-30T06:42:45;21;19;
46885;PMS5003;32622;48.202;11.326;2023-08-30T06:44:48;21;20;
46885;PMS5003;32622;48.202;11.326;2023-08-30T06:46:50;21;20;
46885;PMS5003;32622;48.202;11.326;2023-08-30T06:48:52;21;20;
46885;PMS5003;32622;48.202;11.326;2023-08-30T06:50:56;20;20;
46885;PMS5003;32622;48.202;11.326;2023-08-30T06:52:59;20;20;
46885;PMS5003;32622;48.202;11.326;2023-08-30T06:55:01;20;20;
46885;PMS5003;32622;48.202;11.326;2023-08-30T06:57:03;21;21;
46885;PMS5003;32622;48.202;11.326;2023-08-30T06:59:06;21;21;
46885;PMS5003;32622;48.202;11.326;2023-08-30T07:01:08;21;21;
46885;PMS5003;32622;48.202;11.326;2023-08-30T07:03:10;20;20;
46885;PMS5003;32622;48.202;11.326;2023-08-30T07:05:12;20;20;
46885;PMS5003;32622;48.202;11.326;2023-08-30T07:07:14;20;20;
46885;PMS5003;32622;48.202;11.326;2023-08-30T07:09:16;20;20;
46885;PMS5003;32622;48.202;11.326;2023-08-30T07:11:18;20;20;
46885;PMS5003;32622;48.202;11.326;2023-08-30T07:13:20;20;20;
46885;PMS5003;32622;48.202;11.326;2023-08-30T07:15:22;20;20;
46885;PMS5003;32622;48.202;11.326;2023-08-30T07:17:25;20;20;
46885;PMS5003;32622;48.202;11.326;2023-08-30T07:19:27;20;20;
46885;PMS5003;32622;48.202;11.326;2023-08-30T07:21:29;19;19;
46885;PMS5003;32622;48.202;11.326;2023-08-30T07:23:31;19;19;
46885;PMS5003;32622;48.202;11.326;2023-08-30T07:25:33;19;19;
46885;PMS5003;32622;48.202;11.326;2023-08-30T07:27:35;19;19;
46885;PMS5003;32622;48.202;11.326;2023-08-30T07:29:37;19;19;
46885;PMS5003;32622;48.202;11.326;2023-08-30T07:31:40;19;19;
46885;PMS5003;32622;48.202;11.326;2023-08-30T07:33:42;19;19;
46885;PMS5003;32622;48.202;11.326;2023-08-30T07:35:44;19;19;
46885;PMS5003;32622;48.202;11.326;2023-08-30T07:37:47;19;19;
46885;PMS5003;32622;48.202;11.326;2023-08-30T07:39:51;19;19;
46885;PMS5003;32622;48.202;11.326;2023-08-30T07:41:53;19;19;
46885;PMS5003;32622;48.202;11.326;2023-08-30T07:43:55;19;19;
46885;PMS5003;32622;48.202;11.326;2023-08-30T07:45:57;18;18;
46885;PMS5003;32622;48.202;11.326;2023-08-30T07:47:59;18;18;
46885;PMS5003;32622;48.202;11.326;2023-08-30T07:50:04;18;18;
46885;PMS5003;32622;48.202;11.326;2023-08-30T07:52:08;18;18;
46885;PMS5003;32622;48.202;11.326;2023-08-30T07:54:10;18;18;
46885;PMS5003;32622;48.202;11.326;2023-08-30T07:56:12;18;18;
46885;PMS5003;32622;48.202;11.326;2023-08-30T07:58:14;18;18;
46885;PMS5003;32622;48.202;11.326;2023-08-30T08:00:17;18;18;
46885;PMS5003;32622;48.202;11.326;2023-08-30T08:02:19;18;18;
46885;PMS5003;32622;48.202;11.326;2023-08-30T08:04:21;18;18;
46885;PMS5003;32622;48.202;11.326;2023-08-30T08:06:23;18;18;
46885;PMS5003;32622;48.202;11.326;2023-08-30T08:08:25;18;18;
46885;PMS5003;32622;48.202;11.326;2023-08-30T08:10:27;17;17;
46885;PMS5003;32622;48.202;11.326;2023-08-30T08:12:30;17;17;
46885;PMS5003;32622;48.202;11.326;2023-08-30T08:14:33;17;17;
46885;PMS5003;32622;48.202;11.326;2023-08-30T08:16:36;17;17;
46885;PMS5003;32622;48.202;11.326;2023-08-30T08:18:38;17;17;
46885;PMS5003;32622;48.202;11.326;2023-08-30T08:20:40;17;17;
46885;PMS5003;32622;48.202;11.326;2023-08-30T08:22:43;17;17;
46885;PMS5003;32622;48.202;11.326;2023-08-30T08:24:45;17;17;
46885;PMS5003;32622;48.202;11.326;2023-08-30T08:26:47;17;17;
46885;PMS5003;32622;48.202;11.326;2023-08-30T08:28:49;17;17;
46885;PMS5003;32622;48.202;11.326;2023-08-30T08:30:51;17;17;
46885;PMS5003;32622;48.202;11.326;2023-08-30T08:32:54;17;17;
46885;PMS5003;32622;48.202;11.326;2023-08-30T08:34:56;17;17;
46885;PMS5003;32622;48.202;11.326;2023-08-30T08:36:58;17;17;
46885;PMS5003;32622;48.202;11.326;2023-08-30T08:39:00;17;17;
46885;PMS5003;32622;48.202;11.326;2023-08-30T08:41:03;16;16;
46885;PMS5003;32622;48.202;11.326;2023-08-30T08:43:06;16;16;
46885;PMS5003;32622;48.202;11.326;2023-08-30T08:45:11;17;17;
46885;PMS5003;32622;48.202;11.326;2023-08-30T08:47:15;16;16;
46885;PMS5003;32622;48.202;11.326;2023-08-30T08:49:18;17;17;
46885;PMS5003;32622;48.202;11.326;2023-08-30T08:51:20;17;17;
46885;PMS5003;32622;48.202;11.326;2023-08-30T08:53:23;17;17;
46885;PMS5003;32622;48.202;11.326;2023-08-30T08:55:25;17;17;
46885;PMS5003;32622;48.202;11.326;2023-08-30T08:57:29;19;19;
46885;PMS5003;32622;48.202;11.326;2023-08-30T08:59:31;18;18;
46885;PMS5003;32622;48.202;11.326;2023-08-30T09:01:33;19;18;
46885;PMS5003;32622;48.202;11.326;2023-08-30T09:03:36;20;19;
46885;PMS5003;32622;48.202;11.326;2023-08-30T09:05:39;19;17;
46885;PMS5003;32622;48.202;11.326;2023-08-30T09:07:42;19;17;
46885;PMS5003;32622;48.202;11.326;2023-08-30T09:09:46;19;17;
46885;PMS5003;32622;48.202;11.326;2023-08-30T09:11:48;20;18;
46885;PMS5003;32622;48.202;11.326;2023-08-30T09:13:50;21;19;
46885;PMS5003;32622;48.202;11.326;2023-08-30T09:15:52;21;19;
46885;PMS5003;32622;48.202;11.326;2023-08-30T09:17:54;22;20;
46885;PMS5003;32622;48.202;11.326;2023-08-30T09:20:05;22;20;
46885;PMS5003;32622;48.202;11.326;2023-08-30T09:22:09;22;20;
46885;PMS5003;32622;48.202;11.326;2023-08-30T09:24:11;22;20;
46885;PMS5003;32622;48.202;11.326;2023-08-30T09:26:13;22;20;
46885;PMS5003;32622;48.202;11.326;2023-08-30T09:28:15;22;20;
46885;PMS5003;32622;48.202;11.326;2023-08-30T09:30:21;21;19;
46885;PMS5003;32622;48.202;11.326;2023-08-30T09:32:23;23;20;
46885;PMS5003;32622;48.202;11.326;2023-08-30T09:34:25;23;21;
46885;PMS5003;32622;48.202;11.326;2023-08-30T09:36:32;24;21;
46885;PMS5003;32622;48.202;11.326;2023-08-30T09:38:36;27;22;
46885;PMS5003;32622;48.202;11.326;2023-08-30T09:40:38;25;21;
46885;PMS5003;32622;48.202;11.326;2023-08-30T09:42:40;24;20;
46885;PMS5003;32622;48.202;11.326;2023-08-30T09:44:43;24;20;
46885;PMS5003;32622;48.202;11.326;2023-08-30T09:46:46;25;21;
46885;PMS5003;32622;48.202;11.326;2023-08-30T09:48:50;27;23;
46885;PMS5003;32622;48.202;11.326;2023-08-30T09:50:54;27;23;
46885;PMS5003;32622;48.202;11.326;2023-08-30T09:52:59;27;23;
46885;PMS5003;32622;48.202;11.326;2023-08-30T09:55:05;28;24;
46885;PMS5003;32622;48.202;11.326;2023-08-30T09:57:08;28;24;
46885;PMS5003;32622;48.202;11.326;2023-08-30T09:59:10;28;24;
46885;PMS5003;32622;48.202;11.326;2023-08-30T10:01:13;25;22;
46885;PMS5003;32622;48.202;11.326;2023-08-30T10:03:16;25;22;
46885;PMS5003;32622;48.202;11.326;2023-08-30T10:05:18;23;20;
46885;PMS5003;32622;48.202;11.326;2023-08-30T10:07:21;21;20;
46885;PMS5003;32622;48.202;11.326;2023-08-30T10:09:24;23;22;
46885;PMS5003;32622;48.202;11.326;2023-08-30T10:11:26;23;22;
46885;PMS5003;32622;48.202;11.326;2023-08-30T10:13:31;23;22;
46885;PMS5003;32622;48.202;11.326;2023-08-30T10:15:40;21;20;
46885;PMS5003;32622;48.202;11.326;2023-08-30T10:17:47;20;20;
46885;PMS5003;32622;48.202;11.326;2023-08-30T10:19:53;20;19;
46885;PMS5003;32622;48.202;11.326;2023-08-30T10:21:59;19;19;
46885;PMS5003;32622;48.202;11.326;2023-08-30T10:24:03;20;20;
46885;PMS5003;32622;48.202;11.326;2023-08-30T10:26:09;21;21;
46885;PMS5003;32622;48.202;11.326;2023-08-30T10:28:11;21;21;
46885;PMS5003;32622;48.202;11.326;2023-08-30T10:30:13;22;22;
46885;PMS5003;32622;48.202;11.326;2023-08-30T10:32:19;22;22;
46885;PMS5003;32622;48.202;11.326;2023-08-30T10:34:21;22;22;
46885;PMS5003;32622;48.202;11.326;2023-08-30T10:36:24;21;21;
46885;PMS5003;32622;48.202;11.326;2023-08-30T10:38:27;20;20;
46885;PMS5003;32622;48.202;11.326;2023-08-30T10:40:30;20;20;
46885;PMS5003;32622;48.202;11.326;2023-08-30T10:42:32;20;20;
46885;PMS5003;32622;48.202;11.326;2023-08-30T10:44:34;21;19;
46885;PMS5003;32622;48.202;11.326;2023-08-30T10:46:51;21;19;
46885;PMS5003;32622;48.202;11.326;2023-08-30T10:48:54;21;19;
46885;PMS5003;32622;48.202;11.326;2023-08-30T10:50:56;23;20;
46885;PMS5003;32622;48.202;11.326;2023-08-30T10:52:58;23;20;
46885;PMS5003;32622;48.202;11.326;2023-08-30T10:55:04;23;20;
46885;PMS5003;32622;48.202;11.326;2023-08-30T10:57:12;23;20;
46885;PMS5003;32622;48.202;11.326;2023-08-30T10:59:16;23;20;
46885;PMS5003;32622;48.202;11.326;2023-08-30T11:01:19;23;20;
46885;PMS5003;32622;48.202;11.326;2023-08-30T11:03:22;24;21;
46885;PMS5003;32622;48.202;11.326;2023-08-30T11:05:25;25;22;
46885;PMS5003;32622;48.202;11.326;2023-08-30T11:07:28;25;22;
46885;PMS5003;32622;48.202;11.326;2023-08-30T11:09:31;24;21;
46885;PMS5003;32622;48.202;11.326;2023-08-30T11:11:33;23;20;
46885;PMS5003;32622;48.202;11.326;2023-08-30T11:13:37;23;20;
46885;PMS5003;32622;48.202;11.326;2023-08-30T11:15:40;24;21;
46885;PMS5003;32622;48.202;11.326;2023-08-30T11:17:42;24;21;
46885;PMS5003;32622;48.202;11.326;2023-08-30T11:19:45;24;21;
46885;PMS5003;32622;48.202;11.326;2023-08-30T11:21:50;23;20;
46885;PMS5003;32622;48.202;11.326;2023-08-30T11:23:52;23;20;
46885;PMS5003;32622;48.202;11.326;2023-08-30T11:25:55;24;21;
46885;PMS5003;32622;48.202;11.326;2023-08-30T11:28:01;23;20;
46885;PMS5003;32622;48.202;11.326;2023-08-30T11:30:04;23;20;
46885;PMS5003;32622;48.202;11.326;2023-08-30T11:32:07;23;20;
46885;PMS5003;32622;48.202;11.326;2023-08-30T11:34:09;23;19;
46885;PMS5003;32622;48.202;11.326;2023-08-30T11:36:11;23;19;
46885;PMS5003;32622;48.202;11.326;2023-08-30T11:38:14;23;19;
46885;PMS5003;32622;48.202;11.326;2023-08-30T11:40:17;22;19;
46885;PMS5003;32622;48.202;11.326;2023-08-30T11:42:19;22;19;
46885;PMS5003;32622;48.202;11.326;2023-08-30T11:44:23;22;19;
46885;PMS5003;32622;48.202;11.326;2023-08-30T11:46:25;22;20;
46885;PMS5003;32622;48.202;11.326;2023-08-30T11:48:27;22;20;
46885;PMS5003;32622;48.202;11.326;2023-08-30T11:50:30;22;20;
46885;PMS5003;32622;48.202;11.326;2023-08-30T11:52:32;21;20;
46885;PMS5003;32622;48.202;11.326;2023-08-30T11:54:35;20;19;
46885;PMS5003;32622;48.202;11.326;2023-08-30T11:56:37;20;19;
46885;PMS5003;32622;48.202;11.326;2023-08-30T11:58:39;21;19;
46885;PMS5003;32622;48.202;11.326;2023-08-30T12:00:42;21;19;
46885;PMS5003;32622;48.202;11.326;2023-08-30T12:02:44;21;19;
46885;PMS5003;32622;48.202;11.326;2023-08-30T12:04:47;21;18;
46885;PMS5003;32622;48.202;11.326;2023-08-30T12:06:51;21;18;
46885;PMS5003;32622;48.202;11.326;2023-08-30T12:08:57;21;18;
46885;PMS5003;32622;48.202;11.326;2023-08-30T12:10:59;22;19;
46885;PMS5003;32622;48.202;11.326;2023-08-30T12:13:02;22;19;
46885;PMS5003;32622;48.202;11.326;2023-08-30T12:15:09;23;20;
46885;PMS5003;32622;48.202;11.326;2023-08-30T12:17:11;22;20;
46885;PMS5003;32622;48.202;11.326;2023-08-30T12:19:13;22;20;
46885;PMS5003;32622;48.202;11.326;2023-08-30T12:21:16;22;20;
46885;PMS5003;32622;48.202;11.326;2023-08-30T12:23:19;21;18;
46885;PMS5003;32622;48.202;11.326;2023-08-30T12:25:22;21;18;
46885;PMS5003;32622;48.202;11.326;2023-08-30T12:27:24;21;18;
46885;PMS5003;32622;48.202;11.326;2023-08-30T12:29:26;20;17;
46885;PMS5003;32622;48.202;11.326;2023-08-30T12:31:28;20;17;
46885;PMS5003;32622;48.202;11.326;2023-08-30T12:33:31;20;17;
46885;PMS5003;32622;48.202;11.326;2023-08-30T12:35:34;21;18;
46885;PMS5003;32622;48.202;11.326;2023-08-30T12:37:36;21;18;
46885;PMS5003;32622;48.202;11.326;2023-08-30T12:39:38;21;18;
46885;PMS5003;32622;48.202;11.326;2023-08-30T12:41:41;20;17;
46885;PMS5003;32622;48.202;11.326;2023-08-30T12:43:43;20;17;
46885;PMS5003;32622;48.202;11.326;2023-08-30T12:45:45;20;17;
46885;PMS5003;32622;48.202;11.326;2023-08-30T12:47:48;20;17;
46885;PMS5003;32622;48.202;11.326;2023-08-30T12:49:50;20;17;
46885;PMS5003;32622;48.202;11.326;2023-08-30T12:51:52;20;17;
46885;PMS5003;32622;48.202;11.326;2023-08-30T12:53:54;18;16;
46885;PMS5003;32622;48.202;11.326;2023-08-30T12:55:56;18;16;
46885;PMS5003;32622;48.202;11.326;2023-08-30T12:57:58;18;16;
46885;PMS5003;32622;48.202;11.326;2023-08-30T13:00:00;16;15;
46885;PMS5003;32622;48.202;11.326;2023-08-30T13:02:03;16;15;
46885;PMS5003;32622;48.202;11.326;2023-08-30T13:04:05;16;15;
46885;PMS5003;32622;48.202;11.326;2023-08-30T13:06:07;17;16;
46885;PMS5003;32622;48.202;11.326;2023-08-30T13:08:09;17;16;
46885;PMS5003;32622;48.202;11.326;2023-08-30T13:10:12;17;16;
46885;PMS5003;32622;48.202;11.326;2023-08-30T13:12:14;17;16;
46885;PMS5003;32622;48.202;11.326;2023-08-30T13:14:16;17;16;
46885;PMS5003;32622;48.202;11.326;2023-08-30T13:16:18;17;16;
46885;PMS5003;32622;48.202;11.326;2023-08-30T13:18:20;17;15;
46885;PMS5003;32622;48.202;11.326;2023-08-30T13:20:22;17;15;
46885;PMS5003;32622;48.202;11.326;2023-08-30T13:22:24;17;15;